Time;durP1;ratioP1;P1;durP2;ratioP2;P2;SDS_P1;SDS_P2;PMS_P1;PMS_P2;Temp;Humidity;BMP_temperature;BMP_pressure;BME280_temperature;BME280_humidity;BME280_pressure;Samples;Min_cycle;Max_cycle;Signal;HPM_P1;HPM_P2
2022/04/08 00:02:08;;;;;;;3.60;1.00;;;;;;;8.86;66.37;96352.06;1748136;81;20984;-37
2022/04/08 00:04:34;;;;;;;4.25;0.80;;;;;;;8.83;64.85;96344.03;1748172;81;20976;-36
2022/04/08 00:07:00;;;;;;;3.87;1.00;;;;;;;8.87;65.27;96356.36;1748136;81;20979;-38
2022/04/08 00:09:27;;;;;;;1.75;0.80;;;;;;;8.83;63.33;96366.30;1748203;82;20984;-36
2022/04/08 00:11:52;;;;;;;2.65;1.05;;;;;;;8.78;64.15;96371.97;1748228;81;20984;-37
2022/04/08 00:14:18;;;;;;;3.58;1.05;;;;;;;8.78;63.97;96383.75;1748158;81;20980;-35
2022/04/08 00:16:45;;;;;;;4.03;1.15;;;;;;;8.68;62.99;96376.45;1748204;81;20952;-36
2022/04/08 00:19:11;;;;;;;1.92;0.70;;;;;;;8.70;63.75;96384.16;1748309;81;21027;-37
2022/04/08 00:21:37;;;;;;;2.85;1.07;;;;;;;8.63;63.22;96389.95;1748186;81;20979;-36
2022/04/08 00:24:04;;;;;;;2.33;0.90;;;;;;;8.60;63.37;96375.86;1748082;81;20984;-37
2022/04/08 00:26:30;;;;;;;2.37;1.10;;;;;;;8.57;63.35;96394.97;1748400;81;20991;-37
2022/04/08 00:28:56;;;;;;;2.27;0.88;;;;;;;8.53;63.11;96384.41;1748091;81;21022;-37
2022/04/08 00:31:22;;;;;;;2.47;0.85;;;;;;;8.48;63.46;96389.25;1748093;81;21016;-36
2022/04/08 00:33:48;;;;;;;2.95;1.07;;;;;;;8.48;63.17;96389.25;1737665;82;20976;-36
2022/04/08 00:36:14;;;;;;;2.00;0.78;;;;;;;8.44;63.50;96399.19;1748110;81;20949;-36
2022/04/08 00:38:40;;;;;;;1.85;0.88;;;;;;;8.41;63.66;96398.15;1748198;81;20971;-35
2022/04/08 00:41:06;;;;;;;3.52;1.10;;;;;;;8.43;63.55;96404.91;1748094;81;21449;-37
2022/04/08 00:43:35;;;;;;;4.55;1.35;;;;;;;8.34;63.77;96404.42;1748126;81;21465;-38
2022/04/08 00:46:03;;;;;;;2.33;0.90;;;;;;;8.34;64.08;96400.50;1747484;81;20940;-36
2022/04/08 00:48:29;;;;;;;2.42;0.90;;;;;;;8.31;64.09;96407.31;1748034;81;20996;-36
2022/04/08 00:50:56;;;;;;;3.77;1.00;;;;;;;8.31;64.19;96399.95;1748091;81;21469;-36
2022/04/08 00:53:23;;;;;;;2.67;1.07;;;;;;;8.25;64.24;96419.67;1748101;82;20976;-36
2022/04/08 00:55:49;;;;;;;5.30;1.15;;;;;;;8.26;64.30;96420.84;1748249;81;20948;-37
2022/04/08 00:58:16;;;;;;;4.33;0.98;;;;;;;8.26;64.27;96414.80;1748158;82;20976;-37
2022/04/08 01:00:42;;;;;;;2.67;0.80;;;;;;;8.27;64.44;96422.98;1748354;81;20975;-36
2022/04/08 01:03:08;;;;;;;4.12;1.10;;;;;;;8.25;64.13;96424.91;1748043;82;20961;-36
2022/04/08 01:05:35;;;;;;;2.17;1.10;;;;;;;8.24;64.27;96435.88;1748167;82;21031;-37
2022/04/08 01:08:04;;;;;;;2.40;0.90;;;;;;;8.25;63.89;96424.42;1748342;81;20977;-37
2022/04/08 01:10:30;;;;;;;3.33;1.27;;;;;;;8.21;64.17;96421.75;1748136;81;21797;-37
2022/04/08 01:12:56;;;;;;;2.95;0.80;;;;;;;8.29;64.17;96430.70;1748104;81;20987;-36
2022/04/08 01:15:25;;;;;;;4.25;1.30;;;;;;;8.24;63.97;96432.41;1748202;81;20976;-35
2022/04/08 01:17:50;;;;;;;2.62;1.05;;;;;;;8.28;63.85;96424.64;1748075;81;21460;-37
2022/04/08 01:20:19;;;;;;;4.08;1.05;;;;;;;8.26;64.01;96438.36;1737890;81;20960;-36
2022/04/08 01:22:45;;;;;;;3.47;1.05;;;;;;;8.28;63.94;96432.50;1748043;81;21445;-35
2022/04/08 01:25:12;;;;;;;2.67;0.93;;;;;;;8.31;63.94;96447.91;1748093;81;20984;-36
2022/04/08 01:27:39;;;;;;;3.90;0.88;;;;;;;8.31;63.62;96435.30;1748372;81;21622;-35
2022/04/08 01:30:08;;;;;;;4.30;1.00;;;;;;;8.27;63.98;96434.27;1748199;81;21401;-36
2022/04/08 01:32:35;;;;;;;1.75;0.85;;;;;;;8.25;64.35;96445.86;1748039;81;21462;-37
2022/04/08 01:35:01;;;;;;;4.08;1.25;;;;;;;8.16;64.15;96442.28;1748162;81;20983;-37
2022/04/08 01:37:27;;;;;;;3.17;1.17;;;;;;;8.15;64.52;96450.27;1748091;81;20952;-35
2022/04/08 01:39:53;;;;;;;1.98;1.00;;;;;;;8.19;64.30;96452.97;1748061;81;20987;-36
2022/04/08 01:42:23;;;;;;;4.47;1.20;;;;;;;8.11;64.58;96447.10;1748049;81;20983;-36
2022/04/08 01:44:47;;;;;;;2.58;1.30;;;;;;;8.10;64.39;96443.34;1747938;81;20937;-36
2022/04/08 01:47:13;;;;;;;3.00;1.12;;;;;;;8.10;64.49;96441.54;1747937;82;21031;-35
2022/04/08 01:49:38;;;;;;;2.10;1.20;;;;;;;8.10;64.47;96448.58;1760935;81;20976;-35
2022/04/08 01:52:05;;;;;;;6.10;1.30;;;;;;;8.05;64.71;96440.64;1761402;81;20975;-37
2022/04/08 01:54:31;;;;;;;4.85;1.10;;;;;;;8.04;64.75;96449.47;1761626;81;20995;-36
2022/04/08 01:56:57;;;;;;;3.37;1.05;;;;;;;8.03;64.06;96446.49;1761425;81;20980;-36
2022/04/08 01:59:22;;;;;;;4.37;1.27;;;;;;;8.01;63.94;96449.73;1761408;80;20972;-36
2022/04/08 02:01:48;;;;;;;3.95;1.20;;;;;;;7.99;63.76;96444.31;1761396;81;21031;-37
2022/04/08 02:04:14;;;;;;;3.50;1.25;;;;;;;8.02;63.75;96450.55;1761424;81;21028;-38
2022/04/08 02:06:42;;;;;;;3.45;1.22;;;;;;;7.98;63.84;96450.00;1761526;81;21429;-36
2022/04/08 02:09:10;;;;;;;9.15;1.17;;;;;;;7.98;63.66;96462.27;1761416;81;21019;-36
2022/04/08 02:11:36;;;;;;;4.15;1.30;;;;;;;7.97;63.87;96465.88;1761523;81;21014;-36
2022/04/08 02:14:03;;;;;;;3.30;0.93;;;;;;;7.96;63.89;96466.33;1761639;81;20987;-34
2022/04/08 02:16:29;;;;;;;3.87;1.20;;;;;;;7.93;64.50;96466.63;1761494;81;21014;-36
2022/04/08 02:18:56;;;;;;;5.92;1.20;;;;;;;7.90;64.75;96464.77;1761349;81;20952;-35
2022/04/08 02:21:22;;;;;;;2.90;0.90;;;;;;;7.90;64.93;96466.07;1761660;81;21437;-38
2022/04/08 02:23:50;;;;;;;4.10;1.60;;;;;;;7.90;65.07;96466.89;1761384;81;20979;-36
2022/04/08 02:26:16;;;;;;;;;;;;;;;7.95;64.84;96467.31;1763994;81;20940;-35
2022/04/08 02:28:43;;;;;;;2.67;0.90;;;;;;;7.92;65.40;96462.34;1761554;80;20112;-35
2022/04/08 02:31:09;;;;;;;5.45;1.10;;;;;;;7.89;65.14;96478.31;1761563;81;21562;-36
2022/04/08 02:33:35;;;;;;;3.60;1.05;;;;;;;7.92;64.98;96471.50;1761349;81;21026;-34
2022/04/08 02:36:01;;;;;;;6.67;1.20;;;;;;;7.90;64.99;96478.67;1761497;81;20983;-36
2022/04/08 02:38:27;;;;;;;4.05;1.00;;;;;;;7.86;65.35;96478.11;1761383;81;21018;-35
2022/04/08 02:43:40;;;;;;;4.72;1.00;;;;;;;7.86;65.48;96485.96;1843339;77;22933;-37
2022/04/08 02:46:06;;;;;;;4.12;1.30;;;;;;;7.85;65.48;96486.91;1802243;78;21106;-35
2022/04/08 02:48:31;;;;;;;1.47;0.88;;;;;;;7.84;65.55;96482.66;1802147;79;20952;-35
2022/04/08 02:50:57;;;;;;;2.40;1.20;;;;;;;7.79;65.56;96490.58;1802231;79;21016;-35
2022/04/08 02:53:23;;;;;;;4.28;1.00;;;;;;;7.79;65.61;96490.58;1802264;79;21014;-35
2022/04/08 02:55:48;;;;;;;4.55;1.32;;;;;;;7.74;65.68;96488.35;1802215;79;20975;-36
2022/04/08 02:58:15;;;;;;;1.67;0.82;;;;;;;7.73;65.43;96486.72;1802161;79;21026;-35
2022/04/08 03:00:41;;;;;;;4.53;1.10;;;;;;;7.69;65.31;96486.63;1802179;79;21041;-36
2022/04/08 03:03:07;;;;;;;2.42;0.95;;;;;;;7.70;65.49;96493.52;1802354;79;21581;-36
2022/04/08 03:05:33;;;;;;;8.88;1.30;;;;;;;7.74;65.17;96494.89;1802220;79;21027;-38
2022/04/08 03:07:58;;;;;;;4.25;1.05;;;;;;;7.72;65.09;96497.31;1802226;79;21033;-37
2022/04/08 03:10:24;;;;;;;3.92;0.93;;;;;;;7.66;64.71;96508.66;1802100;79;21034;-37
2022/04/08 03:12:50;;;;;;;4.30;0.98;;;;;;;7.73;64.35;96501.56;1802273;79;21026;-36
2022/04/08 03:15:15;;;;;;;2.05;0.80;;;;;;;7.66;64.13;96514.38;1802067;78;21054;-35
2022/04/08 03:17:41;;;;;;;4.25;1.00;;;;;;;7.67;63.88;96495.91;1802207;79;20990;-34
2022/04/08 03:20:08;;;;;;;3.83;1.10;;;;;;;7.66;63.50;96493.45;1802287;79;21033;-36
2022/04/08 03:22:34;;;;;;;2.98;0.80;;;;;;;7.63;63.21;96497.14;1803438;79;21474;-35
2022/04/08 03:25:00;;;;;;;2.12;1.20;;;;;;;7.67;63.05;96515.52;1803406;79;20994;-36
2022/04/08 03:27:26;;;;;;;1.98;1.10;;;;;;;7.64;62.94;96495.34;1803329;79;21403;-34
2022/04/08 03:29:52;;;;;;;5.87;1.07;;;;;;;7.58;62.24;96498.02;1803362;79;21049;-37
2022/04/08 03:32:17;;;;;;;5.62;1.75;;;;;;;7.61;62.30;96510.84;1803377;79;20983;-34
2022/04/08 03:34:43;;;;;;;3.50;0.80;;;;;;;7.65;62.64;96516.14;1803448;79;20959;-35
2022/04/08 03:37:10;;;;;;;3.20;0.95;;;;;;;7.69;62.40;96519.31;1803447;79;21026;-36
2022/04/08 03:39:37;;;;;;;5.12;0.88;;;;;;;7.68;62.23;96518.98;1803502;79;21022;-36
2022/04/08 03:42:03;;;;;;;3.08;0.90;;;;;;;7.65;62.12;96527.09;1807154;79;21042;-35
2022/04/08 03:44:29;;;;;;;1.55;1.02;;;;;;;7.68;62.14;96517.19;1820730;78;21006;-38
2022/04/08 03:46:55;;;;;;;2.22;0.80;;;;;;;7.61;62.48;96529.15;1820678;78;20967;-38
2022/04/08 03:49:21;;;;;;;3.60;1.00;;;;;;;7.66;62.12;96536.61;1820726;78;20951;-37
2022/04/08 03:51:47;;;;;;;2.65;1.05;;;;;;;7.63;61.96;96527.71;1820696;79;20987;-37
2022/04/08 03:54:14;;;;;;;1.67;0.93;;;;;;;7.61;62.10;96528.33;1820301;79;20987;-37
2022/04/08 03:56:43;;;;;;;3.10;1.20;;;;;;;7.64;61.86;96543.27;1820234;79;20986;-34
2022/04/08 03:59:09;;;;;;;3.55;0.80;;;;;;;7.60;61.91;96541.87;1820173;79;21484;-36
2022/04/08 04:01:36;;;;;;;3.47;1.25;;;;;;;7.57;62.32;96546.56;1820094;79;20955;-37
2022/04/08 04:04:03;;;;;;;3.85;1.00;;;;;;;7.56;62.16;96536.56;1820114;79;20983;-35
2022/04/08 04:06:30;;;;;;;2.25;0.95;;;;;;;7.56;62.26;96554.87;1820275;79;20974;-34
2022/04/08 04:08:55;;;;;;;4.05;0.90;;;;;;;7.56;62.37;96540.48;1820197;79;21425;-35
2022/04/08 04:11:21;;;;;;;2.20;1.05;;;;;;;7.52;62.15;96563.95;1820109;79;20982;-37
2022/04/08 04:13:48;;;;;;;5.33;1.15;;;;;;;7.48;62.41;96554.72;1820108;79;20974;-37
2022/04/08 04:16:14;;;;;;;3.75;0.95;;;;;;;7.46;62.60;96564.49;1820291;79;20986;-37
2022/04/08 04:18:40;;;;;;;3.42;1.12;;;;;;;7.47;62.44;96583.12;1820103;79;20988;-36
2022/04/08 04:21:06;;;;;;;6.42;1.10;;;;;;;7.36;62.54;96570.16;1820163;79;20976;-35
2022/04/08 04:23:34;;;;;;;2.52;1.20;;;;;;;7.45;62.46;96588.97;1820179;79;21440;-36
2022/04/08 04:26:01;;;;;;;2.98;1.10;;;;;;;7.44;62.29;96582.92;1820135;79;21039;-36
2022/04/08 04:28:31;;;;;;;4.25;0.90;;;;;;;7.41;62.23;96587.59;1820240;78;20982;-37
2022/04/08 04:30:59;;;;;;;4.25;1.67;;;;;;;7.44;62.24;96584.69;1820054;78;20955;-37
2022/04/08 04:33:26;;;;;;;3.35;1.27;;;;;;;7.37;62.39;96588.78;1820083;79;21027;-36
2022/04/08 04:35:52;;;;;;;2.27;1.17;;;;;;;7.42;62.13;96588.77;1820240;79;21488;-36
2022/04/08 04:38:18;;;;;;;5.45;1.15;;;;;;;7.41;62.25;96584.48;1820078;78;20978;-39
2022/04/08 04:40:43;;;;;;;3.90;1.40;;;;;;;7.40;62.17;96597.20;1820081;78;20943;-35
2022/04/08 04:43:09;;;;;;;3.12;1.32;;;;;;;7.40;62.12;96596.38;1819919;79;21018;-39
2022/04/08 04:45:37;;;;;;;4.37;1.27;;;;;;;7.37;62.18;96610.55;1820130;78;20963;-36
2022/04/08 04:48:04;;;;;;;3.30;1.35;;;;;;;7.39;61.90;96618.27;1820018;79;21010;-36
2022/04/08 04:50:30;;;;;;;6.95;1.35;;;;;;;7.41;62.22;96618.96;1820258;78;20987;-36
2022/04/08 04:52:56;;;;;;;5.45;1.20;;;;;;;7.41;62.07;96616.34;1820080;78;21425;-37
2022/04/08 04:55:21;;;;;;;4.17;1.27;;;;;;;7.38;62.10;96630.98;1820050;78;20979;-36
2022/04/08 04:57:47;;;;;;;2.72;1.05;;;;;;;7.32;61.87;96626.28;1820161;78;20971;-37
2022/04/08 05:00:16;;;;;;;5.25;1.47;;;;;;;7.37;61.78;96628.00;1820165;78;21530;-37
2022/04/08 05:02:42;;;;;;;4.80;1.20;;;;;;;7.38;61.85;96629.18;1793079;79;20951;-37
2022/04/08 05:05:09;;;;;;;4.22;1.25;;;;;;;7.36;61.69;96645.97;1820038;79;20979;-36
2022/04/08 05:07:34;;;;;;;3.22;1.22;;;;;;;7.38;61.50;96646.66;1820139;79;20963;-36
2022/04/08 05:10:03;;;;;;;6.97;1.52;;;;;;;7.41;61.36;96649.84;1820071;78;21009;-38
2022/04/08 05:12:28;;;;;;;3.25;1.27;;;;;;;7.39;61.34;96646.53;1820112;79;20995;-36
2022/04/08 05:14:54;;;;;;;2.90;1.30;;;;;;;7.40;60.91;96644.25;1820096;78;20948;-36
2022/04/08 05:17:20;;;;;;;3.58;1.00;;;;;;;7.43;60.13;96649.72;1820107;78;21508;-37
2022/04/08 05:19:46;;;;;;;5.00;1.25;;;;;;;7.44;60.37;96647.44;1820045;79;21436;-36
2022/04/08 05:22:11;;;;;;;4.05;1.15;;;;;;;7.45;60.42;96644.70;1819953;79;20979;-38
2022/04/08 05:24:37;;;;;;;3.65;1.40;;;;;;;7.48;60.28;96656.70;1820032;79;21010;-36
2022/04/08 05:27:05;;;;;;;7.95;1.50;;;;;;;7.50;60.24;96654.78;1820036;78;20994;-37
2022/04/08 05:29:30;;;;;;;;;;;;;;;7.49;60.11;96650.50;1822765;79;20983;-36
2022/04/08 05:31:56;;;;;;;2.62;0.98;;;;;;;7.48;60.27;96676.31;1820118;79;20093;-36
2022/04/08 05:34:22;;;;;;;4.90;1.45;;;;;;;7.53;60.20;96678.06;1820166;78;20983;-37
2022/04/08 05:36:48;;;;;;;6.67;1.80;;;;;;;7.48;60.44;96677.13;1819986;78;21006;-37
2022/04/08 05:39:13;;;;;;;3.25;1.32;;;;;;;7.48;61.34;96688.91;1820122;79;21364;-36
2022/04/08 05:41:39;;;;;;;6.95;1.10;;;;;;;7.32;63.97;96696.86;1820120;78;20940;-37
2022/04/08 05:44:05;;;;;;;3.92;1.50;;;;;;;7.03;65.68;96705.33;1796465;78;21567;-36
2022/04/08 05:46:31;;;;;;;3.27;1.40;;;;;;;6.82;68.46;96728.80;1791803;79;20979;-36
2022/04/08 05:48:57;;;;;;;6.60;1.60;;;;;;;6.67;68.39;96721.73;1791791;79;21018;-38
2022/04/08 05:51:23;;;;;;;5.33;1.82;;;;;;;6.54;70.41;96739.68;1791736;79;21425;-37
2022/04/08 05:53:49;;;;;;;4.95;1.62;;;;;;;6.53;70.16;96728.05;1791875;79;20979;-36
2022/04/08 05:56:14;;;;;;;4.62;1.72;;;;;;;6.54;71.32;96725.80;1791774;79;20975;-39
2022/04/08 05:58:40;;;;;;;4.55;1.57;;;;;;;6.53;71.37;96757.62;1791907;80;21468;-38
2022/04/08 06:01:06;;;;;;;3.72;1.32;;;;;;;6.51;71.46;96759.53;1791733;79;21507;-38
2022/04/08 06:03:32;;;;;;;3.50;1.30;;;;;;;6.53;70.59;96778.96;1791758;79;20991;-38
2022/04/08 06:05:58;;;;;;;3.15;1.50;;;;;;;6.41;72.76;96771.64;1791717;79;20983;-39
2022/04/08 06:08:23;;;;;;;3.87;1.37;;;;;;;6.45;72.08;96778.27;1791819;79;21014;-37
2022/04/08 06:10:50;;;;;;;5.28;1.45;;;;;;;6.47;71.86;96776.84;1791726;79;20967;-38
2022/04/08 06:13:16;;;;;;;5.00;1.30;;;;;;;6.46;71.87;96785.65;1791688;79;20978;-38
2022/04/08 06:15:42;;;;;;;4.13;1.20;;;;;;;6.42;73.12;96787.67;1792081;79;21512;-37
2022/04/08 06:18:12;;;;;;;6.83;3.05;;;;;;;6.53;72.61;96782.88;1791723;79;21638;-37
2022/04/08 06:20:38;;;;;;;6.70;1.30;;;;;;;6.52;72.70;96776.02;1791578;79;20983;-36
2022/04/08 06:23:04;;;;;;;1.67;1.15;;;;;;;6.65;71.90;96785.01;1791674;79;21022;-37
2022/04/08 06:25:30;;;;;;;2.95;1.40;;;;;;;6.76;71.40;96790.20;1791730;79;20979;-35
2022/04/08 06:28:05;;;;;;;13.98;6.75;;;;;;;6.80;70.26;96798.14;1791758;79;20987;-38
2022/04/08 06:30:35;;;;;;;5.28;2.60;;;;;;;6.94;70.14;96799.66;1791724;80;21510;-38
2022/04/08 06:33:02;;;;;;;7.95;2.58;;;;;;;7.01;69.95;96797.39;1791068;79;21515;-39
2022/04/08 06:35:28;;;;;;;2.27;1.22;;;;;;;7.15;69.72;96803.64;1791817;79;21119;-37
2022/04/08 06:38:06;;;;;;;2.98;1.42;;;;;;;7.24;68.58;96814.65;1791688;79;20978;-39
2022/04/08 06:40:35;;;;;;;6.62;2.00;;;;;;;7.30;68.35;96802.38;1791709;79;20990;-38
2022/04/08 06:43:00;;;;;;;6.50;1.80;;;;;;;7.35;68.45;96816.84;1791424;79;21547;-38
2022/04/08 06:45:27;;;;;;;2.87;1.30;;;;;;;7.44;67.69;96816.09;1791922;79;20975;-37
2022/04/08 06:47:53;;;;;;;7.45;1.40;;;;;;;7.52;67.51;96826.77;1791698;79;20983;-38
2022/04/08 06:50:20;;;;;;;2.10;1.20;;;;;;;7.59;67.07;96818.77;1792060;79;20979;-37
2022/04/08 06:52:47;;;;;;;4.33;1.80;;;;;;;7.64;67.26;96836.22;1791842;79;20982;-36
2022/04/08 06:55:14;;;;;;;4.00;1.22;;;;;;;7.60;66.18;96825.64;1791745;79;21026;-37
2022/04/08 06:57:41;;;;;;;3.30;1.15;;;;;;;7.69;66.56;96842.36;1792118;80;20979;-38
2022/04/08 07:00:11;;;;;;;2.95;1.22;;;;;;;7.75;65.81;96857.58;1791733;79;20983;-37
2022/04/08 07:02:38;;;;;;;2.83;1.12;;;;;;;7.67;64.53;96845.59;1791673;79;21461;-37
2022/04/08 07:05:05;;;;;;;2.55;1.25;;;;;;;7.72;64.60;96849.15;1791705;79;20975;-36
2022/04/08 07:07:32;;;;;;;2.37;0.88;;;;;;;7.87;64.99;96863.56;1791847;79;20987;-38
2022/04/08 07:09:58;;;;;;;5.60;1.30;;;;;;;7.96;64.51;96853.63;1791909;79;21038;-36
2022/04/08 07:12:27;;;;;;;2.25;1.10;;;;;;;8.01;64.24;96846.23;1791678;79;21034;-35
2022/04/08 07:14:53;;;;;;;3.20;1.40;;;;;;;8.08;64.02;96853.92;1791502;79;21077;-37
2022/04/08 07:17:32;;;;;;;6.33;1.32;;;;;;;8.05;64.23;96863.33;1791680;79;21003;-38
2022/04/08 07:19:58;;;;;;;2.92;1.30;;;;;;;7.98;64.01;96865.28;1791427;79;21523;-37
2022/04/08 07:22:25;;;;;;;2.05;1.02;;;;;;;8.03;64.06;96870.48;1791654;80;21155;-36
2022/04/08 07:24:52;;;;;;;1.10;0.90;;;;;;;8.01;63.41;96872.41;1792056;79;20964;-36
2022/04/08 07:27:19;;;;;;;;;;;;;;;7.97;63.02;96893.25;1794402;79;20984;-36
2022/04/08 07:29:46;;;;;;;3.22;1.25;;;;;;;7.96;63.35;96888.14;1792160;79;20106;-37
2022/04/08 07:32:12;;;;;;;1.15;1.00;;;;;;;7.90;63.57;96881.63;1792019;79;20986;-38
2022/04/08 07:34:38;;;;;;;2.45;1.25;;;;;;;7.87;63.38;96876.64;1792012;79;20971;-38
2022/04/08 07:37:05;;;;;;;1.87;0.98;;;;;;;7.91;63.21;96892.44;1791810;79;20948;-38
2022/04/08 07:39:32;;;;;;;3.90;1.50;;;;;;;7.96;63.43;96892.06;1792043;79;20971;-38
2022/04/08 07:41:58;;;;;;;1.17;0.78;;;;;;;8.00;63.56;96893.47;1791841;80;21845;-38
2022/04/08 07:44:24;;;;;;;2.55;1.15;;;;;;;8.07;63.53;96912.94;1812101;79;21046;-36
2022/04/08 07:46:50;;;;;;;2.45;1.57;;;;;;;8.08;63.51;96904.96;1820162;79;20975;-38
2022/04/08 07:49:15;;;;;;;4.80;1.50;;;;;;;8.13;63.10;96912.45;1820117;78;20963;-36
2022/04/08 07:51:42;;;;;;;4.22;1.82;;;;;;;8.08;62.88;96919.36;1820096;78;20991;-38
2022/04/08 07:54:08;;;;;;;4.65;2.47;;;;;;;8.05;63.10;96922.22;1820043;79;20967;-38
2022/04/08 07:56:35;;;;;;;2.27;1.72;;;;;;;7.97;63.30;96921.22;1820080;79;21021;-36
2022/04/08 07:59:03;;;;;;;1.57;1.07;;;;;;;8.03;63.60;96925.94;1820276;79;21491;-38
2022/04/08 08:01:29;;;;;;;2.25;1.20;;;;;;;8.05;63.66;96938.41;1820108;79;21030;-36
2022/04/08 08:03:54;;;;;;;4.37;1.17;;;;;;;8.01;63.23;96934.39;1820199;79;20979;-36
2022/04/08 08:06:20;;;;;;;1.60;1.20;;;;;;;8.00;62.79;96932.23;1819551;79;21027;-36
2022/04/08 08:08:46;;;;;;;3.25;0.88;;;;;;;8.03;62.75;96947.70;1818785;78;21528;-36
2022/04/08 08:11:13;;;;;;;2.87;1.47;;;;;;;8.01;62.55;96948.30;1818784;79;21524;-37
2022/04/08 08:13:39;;;;;;;3.25;1.30;;;;;;;8.00;62.95;96954.48;1820181;79;21025;-37
2022/04/08 08:16:07;;;;;;;3.70;1.30;;;;;;;8.06;62.84;96967.57;1820069;78;20955;-35
2022/04/08 08:18:34;;;;;;;2.25;1.20;;;;;;;8.03;63.57;96967.81;1820201;79;21034;-36
2022/04/08 08:21:00;;;;;;;3.15;1.60;;;;;;;7.97;65.10;96979.62;1820325;79;20983;-38
2022/04/08 08:23:27;;;;;;;2.75;1.30;;;;;;;7.91;64.84;96983.20;1820019;79;20983;-36
2022/04/08 08:25:53;;;;;;;5.30;1.50;;;;;;;7.98;64.21;96979.12;1820293;79;21018;-37
2022/04/08 08:28:21;;;;;;;3.85;1.17;;;;;;;7.97;64.55;96987.47;1820209;79;21031;-38
2022/04/08 08:30:46;;;;;;;3.30;1.30;;;;;;;8.00;64.85;96998.97;1819864;79;20967;-38
2022/04/08 08:33:12;;;;;;;2.47;1.32;;;;;;;7.84;66.61;96996.80;1820050;79;20982;-38
2022/04/08 08:35:38;;;;;;;3.17;1.30;;;;;;;7.85;66.74;97001.05;1820183;78;21017;-37
2022/04/08 08:38:04;;;;;;;2.12;1.10;;;;;;;7.91;66.41;96998.41;1820061;78;20983;-37
2022/04/08 08:40:32;;;;;;;1.62;1.15;;;;;;;7.84;66.92;96997.25;1820027;79;20963;-37
2022/04/08 08:43:01;;;;;;;2.17;1.15;;;;;;;8.01;66.30;96996.72;1818452;78;21417;-38
2022/04/08 08:45:34;;;;;;;4.58;1.55;;;;;;;8.17;65.94;97002.03;1816061;78;21982;-37
2022/04/08 08:48:03;;;;;;;2.25;1.32;;;;;;;8.40;65.36;97012.75;1785586;80;21043;-35
2022/04/08 08:50:30;;;;;;;2.08;1.20;;;;;;;8.40;64.52;97007.51;1785092;80;21025;-36
2022/04/08 08:52:57;;;;;;;4.72;1.60;;;;;;;8.60;64.45;97010.27;1785826;79;20988;-36
2022/04/08 08:55:24;;;;;;;2.87;1.40;;;;;;;8.79;64.71;97000.39;1785907;80;21043;-36
2022/04/08 08:57:51;;;;;;;2.00;1.50;;;;;;;8.86;62.98;97013.78;1786174;80;21497;-36
2022/04/08 09:00:22;;;;;;;1.27;0.90;;;;;;;9.03;62.83;96997.47;1786085;80;21036;-37
2022/04/08 09:02:49;;;;;;;1.85;1.20;;;;;;;9.03;62.75;97004.02;1785548;80;20973;-37
2022/04/08 09:05:24;;;;;;;3.50;1.20;;;;;;;9.04;61.44;97014.87;1786122;80;21486;-37
2022/04/08 09:08:02;;;;;;;2.27;1.10;;;;;;;9.06;61.96;97030.44;1785447;80;21004;-36
2022/04/08 09:10:35;;;;;;;3.75;1.10;;;;;;;8.97;61.45;97039.95;1784959;80;21004;-36
2022/04/08 09:13:03;;;;;;;1.50;1.20;;;;;;;8.68;61.60;97044.53;1785363;80;20992;-37
2022/04/08 09:15:30;;;;;;;1.47;1.07;;;;;;;8.76;61.92;97039.95;1785069;80;21092;-37
2022/04/08 09:18:14;;;;;;;2.63;1.33;;;;;;;9.05;62.86;97059.77;1785667;80;20992;-37
2022/04/08 09:20:49;;;;;;;2.30;1.40;;;;;;;9.15;62.02;97052.80;1785508;80;21055;-37
2022/04/08 09:23:18;;;;;;;2.65;1.60;;;;;;;9.24;62.67;97042.01;1785377;80;21005;-38
2022/04/08 09:25:48;;;;;;;2.27;1.50;;;;;;;9.50;61.94;97041.05;1785598;80;20987;-37
2022/04/08 09:28:17;;;;;;;4.30;1.85;;;;;;;9.95;61.90;97048.48;1785419;80;20969;-37
2022/04/08 09:30:56;;;;;;;2.45;1.35;;;;;;;10.56;60.71;97046.59;1785410;80;21049;-37
2022/04/08 09:33:22;;;;;;;2.10;1.10;;;;;;;11.22;59.60;97035.71;1784512;80;20993;-37
2022/04/08 09:35:50;;;;;;;4.83;1.67;;;;;;;11.51;58.50;97041.70;1785449;80;21537;-37
2022/04/08 09:38:21;;;;;;;2.40;1.22;;;;;;;11.34;54.91;97045.09;1785471;80;21010;-38
2022/04/08 09:40:47;;;;;;;4.85;2.00;;;;;;;11.44;55.30;97042.41;1785300;80;20992;-37
2022/04/08 09:43:14;;;;;;;2.05;1.10;;;;;;;11.40;56.12;97058.15;1785544;80;21489;-36
2022/04/08 09:45:40;;;;;;;1.40;1.20;;;;;;;11.13;54.37;97052.72;1766731;81;21038;-37
2022/04/08 09:48:08;;;;;;;1.85;0.80;;;;;;;10.90;53.36;97076.38;1766040;80;21034;-37
2022/04/08 09:50:36;;;;;;;1.70;0.80;;;;;;;10.42;53.54;97077.23;1789642;80;20982;-37
2022/04/08 09:53:04;;;;;;;1.72;1.35;;;;;;;10.27;54.07;97117.00;1799234;80;20950;-37
2022/04/08 09:55:31;;;;;;;3.12;1.20;;;;;;;10.77;54.12;97076.67;1800469;80;21013;-37
2022/04/08 09:58:08;;;;;;;2.37;1.37;;;;;;;11.18;54.42;97069.86;1800147;80;20966;-37
2022/04/08 10:00:35;;;;;;;2.22;1.02;;;;;;;11.65;53.56;97073.77;1800715;80;20977;-37
2022/04/08 10:03:02;;;;;;;2.10;1.10;;;;;;;12.05;53.09;97070.80;1800701;80;20978;-36
2022/04/08 10:05:28;;;;;;;1.70;1.35;;;;;;;12.29;52.74;97069.39;1800697;80;21849;-37
2022/04/08 10:07:56;;;;;;;2.90;1.40;;;;;;;13.03;51.09;97062.90;1807101;78;20944;-37
2022/04/08 10:10:26;;;;;;;;;;;;;;;13.48;48.72;97056.24;1809632;79;21371;-38
2022/04/08 10:13:09;;;;;;;4.75;1.05;;;;;;;13.78;48.25;97059.67;1806718;79;20130;-37
2022/04/08 10:15:49;;;;;;;5.47;1.22;;;;;;;13.96;46.77;97068.00;1806614;78;21019;-38
2022/04/08 10:18:14;;;;;;;0.93;0.47;;;;;;;13.47;47.91;97190.58;1806166;79;20964;-37
2022/04/08 10:20:40;;;;;;;1.98;0.78;;;;;;;11.70;53.31;97168.95;1800574;79;20938;-37
2022/04/08 10:23:09;;;;;;;3.50;0.60;;;;;;;9.95;58.13;97169.27;1800034;78;20954;-36
